Tropical Cyclones
[Index]
Main Index Home Page Stock Weather Photos Extreme Storms Discussion Storm News and Storm Chasing Reports Tropical Cyclones / Hurricanes / Typhoons Weather Data and Links Wild Fires / Bushfires Weather Observation Techniques Weather Picture Catalogue Tornado Pictures and Reports Stock Video Footage and DVDs for sale
Season 1979-1980 Tropical Cyclone DORIS-GLORIA Track Map
Season 1979-1980 Summaries: [BoM-AU] [JTWC-AU] [JTWC-SIO] [JTWC-SPAC] [JTWC-SH]
<<- Previous TC | BoM 1979-1980 Season | Next TC ->>

click for intensity scale information  Lat/long Grid: Show Hide

 Date Labels: Show Hide

Bureau of Meteorology Tropical Cyclone Data

Name: DORIS-GLORIA
Number: 607 / 197980_14

14 Mar 1980 00:00 UTC to 29 Mar 1980 00:00 UTC

    date/time    lat    long    hPa   cat  kts
1980-03-14 00   10.0   133.8                29          
1980-03-14 06    9.9   134.0                29          
1980-03-14 12    9.8   134.2                29          
1980-03-14 18    9.8   134.5                29          
1980-03-15 00    9.8   135.0                29          
1980-03-15 06   10.0   135.7                29          
1980-03-15 12   10.3   136.3                33          
1980-03-15 18   10.7   136.6                37          
1980-03-16 00   11.1   137.0                43          
1980-03-16 06   11.5   137.3                43          
1980-03-16 12   12.0   137.7                43          
1980-03-16 18   12.6   137.7                37          
1980-03-17 00   13.1   137.4                37          
1980-03-17 06   13.3   136.9                37          
1980-03-17 12   13.4   136.5                33          
1980-03-17 18   13.5   136.2                29          
1980-03-18 00   13.6   135.9                29          
1980-03-18 06   13.7   135.5                29          
1980-03-18 12   13.7   135.1                29          
1980-03-18 18   13.7   134.7                29          
1980-03-19 00   13.6   134.2                29          
1980-03-20 00   13.7   129.4   1003                     
1980-03-20 06   14.1   127.4   1003                     
1980-03-20 12   14.7   125.7   1002                     
1980-03-20 18   15.3   124.2   1001                     
1980-03-21 00   15.8   123.1   1000                     
1980-03-21 06   16.2   122.2    999                     
1980-03-21 12   16.4   121.1    997                     
1980-03-21 18   16.6   120.0    995    1                
1980-03-22 00   16.9   118.9    993    1                
1980-03-22 06   17.1   117.6    991    1                
1980-03-22 12   17.3   115.7    986    1                
1980-03-22 18   17.2   113.3    982    2                
1980-03-23 00   17.0   111.0    980    2                
1980-03-23 06   16.9   109.5    978    2                
1980-03-23 12   17.0   108.3    976    2                
1980-03-23 18   17.2   106.7    975    2                
1980-03-24 00   17.1   105.1    973    2                
1980-03-24 06   16.9   104.1    971    2                
1980-03-24 12   16.8   103.2    969    3                
1980-03-24 18   16.8   102.4    967    3                
1980-03-25 00   17.0   101.8    965    3                
1980-03-25 06   17.1   101.3    957    3                
1980-03-25 12   17.4   100.9    955    4                
1980-03-25 18   18.0   100.3    955    4                
1980-03-26 00   18.7    99.8    955    4                
1980-03-26 06   19.4    99.5    955    4                
1980-03-26 12   20.3    99.4    955    4                
1980-03-26 18   21.4    99.4    956    3                
1980-03-27 00   22.6    99.6    965    3                
1980-03-27 06   24.0   100.0    980    2                
1980-03-27 12   25.8   100.5    984    2                
1980-03-27 18   27.7   101.1    986    1                
1980-03-28 00   29.4   101.8    988    1                
1980-03-28 06   31.2   102.8    991    1                
1980-03-28 12   32.9   104.0    993    1                
1980-03-28 18   34.6   105.6    995    1                
1980-03-29 00   36.5   107.6    997                     
Winds are 10-min average.

Tropical cyclone tracks developed by Michael Bath using data from the Bureau of Meteorology and Google Maps.


[Australian Severe Weather index] [Copyright Notice] [Email Contacts] [Search This Site] [Privacy Policy]
Document: tropical_cyclone_doris-gloria.htm Updated: 30 May 2013